»·PEaware :: N313N KSNA-KLAS

N313N :: KSNA-KLAS

FLIGHT INFORMATION

Flight Status: Arrived
Operator: Privately registered:
United States
More flights under this callsign
Pilot: Damien O. (2415)
Aircraft: GULFSTREAM G-1159C GULFSTREAM 4
(GLF4)
More flights by this aircraft type
Origin: KSNA John Wayne-Orange Co
United States
Destination: KLAS McCarran Intl
United States
More flights between these airports :: More routes between these airports
Route: +FINNZZ2 MISEN KEPEC6
File this flight plan on PilotEdge
Remarks:
Altitude:
(Current/Filed)
290ft
Speed:
(Current/Filed)
400kts
Departed: 02-Dec-19 06:51 PM
Arrived: 02-Dec-19 07:31 PM
Distance/Time
Traveled:
196nm/0:39
Distance/Time
To Go:
Arrived

Flight Plot

Page will automatically refresh every two minutes.

Flight plan parsing failed; only flown route is shown


Map Options




Map Legend


Flown Route
Filed Route
Departure Airport
Arrival Airport
Navaid (VOR, NDB)
Fix

Horizontal Profiles

Position Reports

Time Latitude Longitude Heading Altitude Ground
Speed
02-Dec-19 18:33 33.667498 -117.875766 28 64ft 0kts
02-Dec-19 18:34 33.667498 -117.875766 28 64ft 0kts
02-Dec-19 18:35 33.667498 -117.875766 28 64ft 0kts
02-Dec-19 18:36 33.667498 -117.875766 28 64ft 0kts
02-Dec-19 18:36 33.667498 -117.875766 28 64ft 0kts
02-Dec-19 18:38 33.667498 -117.875766 28 64ft 0kts
02-Dec-19 18:39 33.667498 -117.875766 28 64ft 0kts
02-Dec-19 18:39 33.667498 -117.875766 28 64ft 0kts
02-Dec-19 18:40 33.667498 -117.875766 28 64ft 0kts
02-Dec-19 18:42 33.667498 -117.875766 28 64ft 0kts
02-Dec-19 18:43 33.672296 -117.873655 206 64ft 0kts
02-Dec-19 18:43 33.672296 -117.873655 206 64ft 0kts
02-Dec-19 18:44 33.672296 -117.873655 206 64ft 0kts
02-Dec-19 18:45 33.673829 -117.871564 28 64ft 25kts
02-Dec-19 18:46 33.680046 -117.867701 24 64ft 15kts
02-Dec-19 18:47 33.681875 -117.866093 101 64ft 0kts
02-Dec-19 18:48 33.681875 -117.866093 101 64ft 0kts
02-Dec-19 18:49 33.681875 -117.866093 101 64ft 0kts
02-Dec-19 18:51 33.680064 -117.866124 208 64ft 69kts
02-Dec-19 18:51 33.641494 -117.891844 212 1784ft 223kts
02-Dec-19 18:52 33.578635 -117.899853 181 5055ft 238kts
02-Dec-19 18:53 33.525732 -117.940906 226 8329ft 238kts
02-Dec-19 18:54 33.474999 -118.009703 252 11727ft 314kts
02-Dec-19 18:55 33.528745 -118.088009 326 15271ft 353kts
02-Dec-19 18:56 33.623034 -118.126804 9 17046ft 392kts
02-Dec-19 18:57 33.718076 -118.055263 32 19699ft 424kts
02-Dec-19 18:58 33.822967 -117.981983 22 22743ft 454kts
02-Dec-19 18:59 33.938235 -117.908080 26 25798ft 490kts
02-Dec-19 19:00 34.051977 -117.806751 36 28903ft 530kts
02-Dec-19 19:01 34.153647 -117.675923 51 29232ft 591kts
02-Dec-19 19:02 34.261692 -117.517858 49 29229ft 605kts
02-Dec-19 19:03 34.369409 -117.361576 50 29282ft 606kts
02-Dec-19 19:04 34.476210 -117.204752 50 29266ft 606kts
02-Dec-19 19:05 34.583055 -117.047532 50 29293ft 604kts
02-Dec-19 19:06 34.687912 -116.890546 50 29304ft 597kts
02-Dec-19 19:07 34.791761 -116.733324 50 29310ft 597kts
02-Dec-19 19:08 34.895196 -116.576658 50 28315ft 587kts
02-Dec-19 19:09 35.006485 -116.439736 21 26672ft 561kts
02-Dec-19 19:10 35.135923 -116.343165 46 25014ft 553kts
02-Dec-19 19:11 35.237525 -116.205916 46 24278ft 544kts
02-Dec-19 19:12 35.338910 -116.069278 46 22895ft 529kts
02-Dec-19 19:13 35.439774 -115.944948 42 20883ft 504kts
02-Dec-19 19:14 35.538432 -115.829169 42 18886ft 480kts
02-Dec-19 19:15 35.633122 -115.719285 42 16900ft 458kts
02-Dec-19 19:16 35.722827 -115.613861 43 14920ft 436kts
02-Dec-19 19:17 35.824213 -115.552688 5 13002ft 410kts
02-Dec-19 19:18 35.931664 -115.550163 356 11131ft 356kts
02-Dec-19 19:19 36.006704 -115.506568 65 11092ft 344kts
02-Dec-19 19:20 36.027248 -115.394694 91 11062ft 338kts
02-Dec-19 19:21 36.027990 -115.292867 91 10874ft 279kts
02-Dec-19 19:22 36.028903 -115.196918 92 9084ft 275kts
02-Dec-19 19:23 36.018740 -115.112388 101 8067ft 228kts
02-Dec-19 19:24 36.041380 -115.050241 21 8065ft 199kts
02-Dec-19 19:25 36.089175 -115.024459 21 7250ft 186kts
02-Dec-19 19:26 36.134417 -115.017110 302 7006ft 179kts
02-Dec-19 19:27 36.143162 -115.080922 282 4704ft 207kts
02-Dec-19 19:28 36.138852 -115.133087 227 3200ft 153kts
02-Dec-19 19:29 36.105987 -115.152594 203 2418ft 156kts
02-Dec-19 19:30 36.084451 -115.165660 226 2189ft 28kts
02-Dec-19 19:31 36.083155 -115.168791 359 2189ft 0kts

Navigation Log

Ident Type
Flight plan parsing failed, navigation log unavailable